createdAt,value
2019-02-27T00:01:20.806Z,101967.75
2019-02-27T00:03:50.470Z,101967.36
2019-02-27T00:06:19.817Z,101959.37
2019-02-27T00:08:49.525Z,101959.91
2019-02-27T00:11:18.852Z,101961.72
2019-02-27T00:13:49.355Z,101958.36
2019-02-27T00:16:18.707Z,101969.92
2019-02-27T00:18:48.345Z,101969.76
2019-02-27T00:21:19.318Z,101968.54
2019-02-27T00:23:49.085Z,101967.67
2019-02-27T00:26:18.446Z,101970.62
2019-02-27T00:29:07.202Z,101963.34
2019-02-27T00:31:36.848Z,101959.45
2019-02-27T00:34:06.490Z,101960.45
2019-02-27T00:36:35.817Z,101961.22
2019-02-27T00:39:05.528Z,101956.56
2019-02-27T00:41:34.859Z,101953.29
2019-02-27T00:44:04.528Z,101954.75
2019-02-27T00:46:34.092Z,101951.13
2019-02-27T00:49:03.805Z,101951.67
2019-02-27T00:51:33.511Z,101948.41
2019-02-27T00:54:03.116Z,101945.06
2019-02-27T00:56:32.818Z,101944.39
2019-02-27T00:59:02.426Z,101942.39
2019-02-27T01:01:32.044Z,101940.73
2019-02-27T01:04:02.452Z,101938.80
2019-02-27T01:06:31.873Z,101934.28
2019-02-27T01:09:03.892Z,101938.46
2019-02-27T01:11:32.829Z,101940.35
2019-02-27T01:14:04.165Z,101936.62
2019-02-27T01:16:33.565Z,101942.79
2019-02-27T01:19:04.731Z,101939.91
2019-02-27T01:21:34.335Z,101940.89
2019-02-27T01:24:03.645Z,101944.32
2019-02-27T01:26:33.001Z,101942.73
2019-02-27T01:29:02.334Z,101937.27
2019-02-27T01:31:31.740Z,101935.64
2019-02-27T01:34:01.431Z,101936.72
2019-02-27T01:36:30.798Z,101930.66
2019-02-27T01:39:00.145Z,101929.34
2019-02-27T01:41:29.478Z,101930.38
2019-02-27T01:43:59.151Z,101922.48
2019-02-27T01:46:28.750Z,101921.94
2019-02-27T01:48:58.451Z,101923.37
2019-02-27T01:51:28.185Z,101913.30
2019-02-27T01:53:58.323Z,101920.12
2019-02-27T01:56:29.095Z,101911.63
2019-02-27T01:58:59.035Z,101909.70
2019-02-27T02:01:30.293Z,101905.81
2019-02-27T02:03:59.442Z,101899.27
2019-02-27T02:06:32.013Z,101905.50
2019-02-27T02:09:31.561Z,101905.20
2019-02-27T02:12:08.796Z,101906.52
2019-02-27T02:15:32.451Z,101900.55
2019-02-27T02:18:28.720Z,101899.55
2019-02-27T02:21:34.326Z,101896.45
2019-02-27T02:24:41.320Z,101899.44
2019-02-27T02:27:24.492Z,101894.33
2019-02-27T02:30:48.574Z,101887.41
2019-02-27T02:33:41.034Z,101889.62
2019-02-27T02:36:24.787Z,101890.33
2019-02-27T02:39:17.631Z,101887.19
2019-02-27T02:41:59.170Z,101896.33
2019-02-27T02:44:33.707Z,101892.33
2019-02-27T02:47:19.584Z,101881.67
2019-02-27T02:50:17.467Z,101888.59
2019-02-27T02:53:00.328Z,101883.13
2019-02-27T02:56:00.167Z,101879.50
2019-02-27T02:58:47.158Z,101868.53
2019-02-27T03:01:28.092Z,101863.58
2019-02-27T03:04:12.765Z,101857.81
2019-02-27T03:07:12.426Z,101858.78
2019-02-27T03:10:07.153Z,101856.95
2019-02-27T03:13:07.117Z,101857.64
2019-02-27T03:15:54.818Z,101849.95
2019-02-27T03:18:50.149Z,101848.64
2019-02-27T03:21:51.257Z,101848.10
2019-02-27T03:24:45.884Z,101845.02
2019-02-27T03:27:56.950Z,101846.78
2019-02-27T03:30:37.148Z,101845.62
2019-02-27T03:33:39.050Z,101843.33
2019-02-27T03:36:46.793Z,101836.56
2019-02-27T03:39:24.403Z,101840.19
2019-02-27T03:42:07.809Z,101837.83
2019-02-27T03:44:45.108Z,101833.96
2019-02-27T03:47:31.267Z,101829.70
2019-02-27T03:50:31.003Z,101838.77
2019-02-27T03:53:13.493Z,101829.97
2019-02-27T03:56:10.059Z,101824.58
2019-02-27T03:59:07.247Z,101827.41
2019-02-27T04:01:50.185Z,101822.72
2019-02-27T04:04:54.350Z,101817.73
2019-02-27T04:07:54.479Z,101825.16
2019-02-27T04:10:23.814Z,101828.32
2019-02-27T04:12:53.152Z,101829.70
2019-02-27T04:15:22.856Z,101827.94
2019-02-27T04:17:52.363Z,101827.34
2019-02-27T04:20:21.955Z,101829.03
2019-02-27T04:22:51.304Z,101827.67
2019-02-27T04:25:20.617Z,101828.73
2019-02-27T04:27:55.288Z,101823.20
2019-02-27T04:30:21.704Z,101831.59
2019-02-27T04:32:51.026Z,101834.22
2019-02-27T04:35:20.711Z,101836.13
2019-02-27T04:37:53.859Z,101842.23
2019-02-27T04:40:21.111Z,101846.36
2019-02-27T04:42:50.562Z,101845.55
2019-02-27T04:45:20.162Z,101842.16
2019-02-27T04:47:49.563Z,101848.45
2019-02-27T04:50:19.138Z,101844.59
2019-02-27T04:52:48.453Z,101850.30
2019-02-27T04:55:18.120Z,101852.39
2019-02-27T04:57:47.901Z,101852.89
2019-02-27T05:00:17.211Z,101851.20
2019-02-27T05:02:47.112Z,101848.60
2019-02-27T05:05:16.446Z,101845.19
2019-02-27T05:07:45.795Z,101848.73
2019-02-27T05:10:15.561Z,101841.59
2019-02-27T05:12:47.837Z,101848.22
2019-02-27T05:15:16.286Z,101844.38
2019-02-27T05:17:45.970Z,101847.91
2019-02-27T05:20:15.696Z,101849.77
2019-02-27T05:22:45.375Z,101848.81
2019-02-27T05:25:15.171Z,101842.79
2019-02-27T05:27:44.899Z,101840.03
2019-02-27T05:30:14.619Z,101844.24
2019-02-27T05:32:43.968Z,101840.44
2019-02-27T05:35:13.285Z,101846.55
2019-02-27T05:37:42.595Z,101845.83
2019-02-27T05:40:12.231Z,101854.47
2019-02-27T05:42:41.583Z,101842.39
2019-02-27T05:45:12.904Z,101846.19
2019-02-27T05:47:45.835Z,101848.95
2019-02-27T05:50:14.013Z,101848.31
2019-02-27T05:52:48.314Z,101850.89
2019-02-27T05:55:14.761Z,101852.34
2019-02-27T05:57:44.141Z,101844.55
2019-02-27T06:00:19.648Z,101851.43
2019-02-27T06:02:49.216Z,101849.31
2019-02-27T06:05:18.823Z,101849.36
2019-02-27T06:07:48.181Z,101846.41
2019-02-27T06:10:20.144Z,101842.88
2019-02-27T06:12:49.279Z,101851.30
2019-02-27T06:15:19.533Z,101845.92
2019-02-27T06:17:49.738Z,101842.30
2019-02-27T06:20:19.282Z,101844.52
2019-02-27T06:22:48.687Z,101837.09
2019-02-27T06:25:23.332Z,101834.02
2019-02-27T06:27:50.533Z,101838.99
2019-02-27T06:30:21.743Z,101839.80
2019-02-27T06:32:51.360Z,101834.28
2019-02-27T06:35:20.960Z,101829.24
2019-02-27T06:37:51.337Z,101829.09
2019-02-27T06:40:21.098Z,101829.44
2019-02-27T06:42:53.649Z,101820.52
2019-02-27T06:45:21.862Z,101823.00
2019-02-27T06:47:51.285Z,101814.07
2019-02-27T06:50:25.240Z,101810.90
2019-02-27T06:52:51.912Z,101810.71
2019-02-27T06:55:21.271Z,101810.05
2019-02-27T06:57:50.909Z,101815.88
2019-02-27T07:00:47.018Z,101808.11
2019-02-27T07:03:16.355Z,101807.81
2019-02-27T07:05:48.276Z,101806.50
2019-02-27T07:08:17.112Z,101799.31
2019-02-27T07:10:46.520Z,101796.73
2019-02-27T07:13:16.196Z,101800.48
2019-02-27T07:15:48.172Z,101794.11
2019-02-27T07:18:17.261Z,101795.41
2019-02-27T07:20:46.617Z,101791.05
2019-02-27T07:23:16.281Z,101783.10
2019-02-27T07:25:45.596Z,101784.91
2019-02-27T07:28:15.050Z,101781.33
2019-02-27T07:30:44.462Z,101783.74
2019-02-27T07:33:13.793Z,101785.30
2019-02-27T07:35:43.119Z,101784.10
2019-02-27T07:38:12.530Z,101780.39
2019-02-27T07:40:42.926Z,101784.41
2019-02-27T07:43:12.882Z,101778.33
2019-02-27T07:45:42.773Z,101783.21
2019-02-27T07:48:13.318Z,101783.97
2019-02-27T07:50:43.157Z,101775.16
2019-02-27T07:53:17.442Z,101776.55
2019-02-27T07:55:44.319Z,101774.98
2019-02-27T07:58:13.928Z,101771.19
2019-02-27T08:00:43.343Z,101767.39
2019-02-27T08:03:13.143Z,101758.06
2019-02-27T08:05:42.755Z,101764.42
2019-02-27T08:08:12.452Z,101761.61
2019-02-27T08:10:42.051Z,101759.59
2019-02-27T08:13:11.457Z,101759.64
2019-02-27T08:15:41.408Z,101756.14
2019-02-27T08:18:10.874Z,101764.78
2019-02-27T08:20:40.602Z,101759.39
2019-02-27T08:23:09.976Z,101758.59
2019-02-27T08:25:39.328Z,101756.06
2019-02-27T08:28:08.957Z,101750.84
2019-02-27T08:30:38.358Z,101746.17
2019-02-27T08:33:08.445Z,101748.55
2019-02-27T08:35:38.693Z,101751.59
2019-02-27T08:38:08.016Z,101746.89
2019-02-27T08:40:37.703Z,101750.06
2019-02-27T08:43:07.029Z,101749.89
2019-02-27T08:45:36.637Z,101741.84
2019-02-27T08:48:06.010Z,101738.48
2019-02-27T08:50:35.619Z,101731.87
2019-02-27T08:53:04.962Z,101729.34
2019-02-27T08:55:39.032Z,101724.05
2019-02-27T08:58:07.243Z,101717.82
2019-02-27T09:00:36.898Z,101710.85
2019-02-27T09:03:06.279Z,101703.93
2019-02-27T09:05:35.935Z,101698.06
2019-02-27T09:08:07.367Z,101701.47
2019-02-27T09:10:37.069Z,101694.89
2019-02-27T09:13:06.410Z,101690.17
2019-02-27T09:15:35.749Z,101661.77
2019-02-27T09:18:05.085Z,101682.36
2019-02-27T09:20:34.416Z,101685.67
2019-02-27T09:23:03.799Z,101680.94
2019-02-27T09:25:33.164Z,101672.39
2019-02-27T09:28:03.526Z,101672.30
2019-02-27T09:30:33.001Z,101663.13
2019-02-27T09:33:02.366Z,101658.68
2019-02-27T09:35:33.328Z,101595.27
2019-02-27T09:38:02.986Z,101651.71
2019-02-27T09:40:32.432Z,101655.70
2019-02-27T09:43:02.033Z,101642.74
2019-02-27T09:45:35.563Z,101647.58
2019-02-27T09:48:05.736Z,101648.98
2019-02-27T09:50:41.656Z,101639.87
2019-02-27T09:53:11.196Z,101631.89
2019-02-27T09:55:43.126Z,101626.86
2019-02-27T09:58:13.501Z,101622.06
2019-02-27T10:00:59.157Z,101613.45
2019-02-27T10:03:29.000Z,101611.27
2019-02-27T10:05:58.580Z,101600.52
2019-02-27T10:08:27.940Z,101601.73
2019-02-27T10:10:57.517Z,101600.70
2019-02-27T10:13:26.864Z,101592.38
2019-02-27T10:16:00.577Z,101589.12
2019-02-27T10:18:27.333Z,101584.05
2019-02-27T10:20:56.936Z,101584.11
2019-02-27T10:23:30.239Z,101586.45
2019-02-27T10:25:57.944Z,101579.20
2019-02-27T10:28:27.549Z,101583.13
2019-02-27T10:30:57.161Z,101577.38
2019-02-27T10:33:26.804Z,101566.01
2019-02-27T10:35:56.454Z,101564.09
2019-02-27T10:38:26.813Z,101560.30
2019-02-27T10:40:56.179Z,101557.16
2019-02-27T10:43:25.513Z,101556.39
2019-02-27T10:45:55.102Z,101546.83
2019-02-27T10:48:24.727Z,101544.66
2019-02-27T10:50:54.129Z,101529.34
2019-02-27T10:53:27.163Z,101525.33
2019-02-27T10:55:56.092Z,101521.71
2019-02-27T10:58:25.519Z,101517.08
2019-02-27T11:00:55.256Z,101507.31
2019-02-27T11:03:27.027Z,101511.98
2019-02-27T11:05:55.711Z,101501.50
2019-02-27T11:08:28.886Z,101502.88
2019-02-27T11:10:56.151Z,101500.20
2019-02-27T11:13:25.853Z,101493.30
2019-02-27T11:15:55.484Z,101489.23
2019-02-27T11:18:24.829Z,101481.92
2019-02-27T11:20:55.719Z,101480.62
2019-02-27T11:25:56.995Z,101458.19
2019-02-27T11:28:25.217Z,101451.84
2019-02-27T11:30:54.555Z,101443.44
2019-02-27T11:33:25.827Z,101444.05
2019-02-27T11:35:54.956Z,101448.91
2019-02-27T11:38:25.341Z,101439.05
2019-02-27T11:40:55.141Z,101433.63
2019-02-27T11:43:24.477Z,101420.26
2019-02-27T11:45:57.497Z,101412.50
2019-02-27T11:48:25.182Z,101413.14
2019-02-27T11:50:54.782Z,101410.52
2019-02-27T11:53:24.125Z,101399.22
2019-02-27T11:55:53.484Z,101401.61
2019-02-27T11:58:23.143Z,101398.42
2019-02-27T12:00:52.576Z,101386.69
2019-02-27T12:03:21.993Z,101384.84
2019-02-27T12:05:51.390Z,101387.72
2019-02-27T12:08:22.430Z,101387.06
2019-02-27T12:10:52.156Z,101380.13
2019-02-27T12:13:21.550Z,101369.17
2019-02-27T12:15:51.168Z,101358.00
2019-02-27T12:18:20.890Z,101360.53
2019-02-27T12:20:53.228Z,101356.34
2019-02-27T12:23:21.279Z,101348.13
2019-02-27T12:25:50.949Z,101349.41
2019-02-27T12:28:20.866Z,101338.34
2019-02-27T12:30:50.193Z,101343.04
2019-02-27T12:33:19.842Z,101345.52
2019-02-27T12:35:49.472Z,101337.57
2019-02-27T12:38:18.803Z,101328.44
2019-02-27T12:40:48.473Z,101328.30
2019-02-27T12:43:18.566Z,101327.02
2019-02-27T12:45:48.022Z,101333.16
2019-02-27T12:48:17.683Z,101323.88
2019-02-27T12:50:47.032Z,101316.86
2019-02-27T12:53:20.668Z,101314.24
2019-02-27T12:55:47.756Z,101310.41
2019-02-27T12:58:17.098Z,101312.66
2019-02-27T13:00:46.426Z,101314.55
2019-02-27T13:03:16.154Z,101302.75
2019-02-27T13:05:45.481Z,101301.94
2019-02-27T13:08:16.359Z,101301.30
2019-02-27T13:10:46.205Z,101298.45
2019-02-27T13:13:15.896Z,101289.06
2019-02-27T13:15:45.506Z,101285.02
2019-02-27T13:18:15.118Z,101284.28
2019-02-27T13:20:45.678Z,101289.72
2019-02-27T13:23:15.698Z,101285.67
2019-02-27T13:25:44.995Z,101274.80
2019-02-27T13:28:15.565Z,101286.18
2019-02-27T13:30:45.009Z,101271.27
2019-02-27T13:33:14.354Z,101268.83
2019-02-27T13:35:43.750Z,101268.58
2019-02-27T13:38:17.478Z,101279.59
2019-02-27T13:40:44.481Z,101275.08
2019-02-27T13:43:13.835Z,101266.70
2019-02-27T13:45:47.379Z,101266.77
2019-02-27T13:48:14.337Z,101256.73
2019-02-27T13:50:43.686Z,101253.34
2019-02-27T13:53:13.449Z,101245.33
2019-02-27T13:55:45.364Z,101247.11
2019-02-27T13:58:13.916Z,101236.86
2019-02-27T14:00:43.549Z,101232.06
2019-02-27T14:03:13.408Z,101230.55
2019-02-27T14:05:42.933Z,101224.52
2019-02-27T14:08:12.577Z,101216.65
2019-02-27T14:10:42.275Z,101204.42
2019-02-27T14:13:11.992Z,101201.66
2019-02-27T14:15:41.313Z,101200.06
2019-02-27T14:18:13.370Z,101192.36
2019-02-27T14:20:42.337Z,101181.12
2019-02-27T14:23:11.938Z,101173.80
2019-02-27T14:25:43.190Z,101165.25
2019-02-27T14:28:12.902Z,101167.81
2019-02-27T14:30:49.632Z,101162.89
2019-02-27T14:33:20.438Z,101146.98
2019-02-27T14:35:50.235Z,101142.02
2019-02-27T14:38:21.929Z,101144.41
2019-02-27T14:40:51.378Z,101134.94
2019-02-27T14:43:20.985Z,101131.53
2019-02-27T14:45:50.910Z,101136.63
2019-02-27T14:48:21.524Z,101127.95
2019-02-27T14:50:51.889Z,101126.73
2019-02-27T14:53:21.305Z,101131.86
2019-02-27T14:55:50.634Z,101124.71
2019-02-27T14:58:24.057Z,101120.67
2019-02-27T15:00:51.306Z,101120.20
2019-02-27T15:03:21.031Z,101117.18
2019-02-27T15:05:50.390Z,101120.14
2019-02-27T15:08:19.726Z,101114.66
2019-02-27T15:10:49.049Z,101112.48
2019-02-27T15:13:18.445Z,101108.30
2019-02-27T15:15:47.818Z,101109.03
2019-02-27T15:25:19.816Z,101095.08
2019-02-27T15:27:58.337Z,101085.96
2019-02-27T15:30:32.743Z,101079.58
2019-02-27T15:33:04.886Z,101074.84
2019-02-27T15:35:33.503Z,101068.72
2019-02-27T15:38:02.839Z,101067.37
2019-02-27T15:40:32.192Z,101066.14
2019-02-27T15:43:10.714Z,101064.02
2019-02-27T15:45:32.889Z,101058.83
2019-02-27T15:48:06.644Z,101060.80
2019-02-27T15:50:36.092Z,101060.84
2019-02-27T15:53:05.770Z,101053.15
2019-02-27T15:55:35.697Z,101043.91
2019-02-27T15:58:06.551Z,101032.86
2019-02-27T16:00:36.225Z,101031.70
2019-02-27T16:03:10.827Z,101027.72
2019-02-27T16:05:36.613Z,101027.20
2019-02-27T16:08:06.281Z,101027.92
2019-02-27T16:10:35.992Z,101029.31
2019-02-27T16:13:05.598Z,101022.24
2019-02-27T16:15:34.978Z,101019.30
2019-02-27T16:18:05.216Z,101019.33
2019-02-27T16:20:34.707Z,101016.02
2019-02-27T16:23:05.223Z,101015.89
2019-02-27T16:25:34.727Z,101014.88
2019-02-27T16:28:04.041Z,101012.20
2019-02-27T16:30:34.780Z,101012.42
2019-02-27T16:33:04.126Z,101008.41
2019-02-27T16:35:33.443Z,101019.30
2019-02-27T16:38:03.080Z,101008.89
2019-02-27T16:40:32.434Z,100998.33
2019-02-27T16:43:02.110Z,101002.53
2019-02-27T16:45:39.584Z,100996.83
2019-02-27T16:48:11.111Z,100997.33
2019-02-27T16:50:39.982Z,101001.53
2019-02-27T16:53:09.651Z,100990.61
2019-02-27T16:55:39.642Z,100993.81
2019-02-27T16:58:09.088Z,100991.96
2019-02-27T17:00:40.054Z,100998.64
2019-02-27T17:03:13.064Z,100992.58
2019-02-27T17:05:43.120Z,101000.92
2019-02-27T17:08:12.059Z,100997.56
2019-02-27T17:10:42.666Z,100999.69
2019-02-27T17:13:14.862Z,100994.64
2019-02-27T17:15:43.475Z,100986.73
2019-02-27T17:18:12.893Z,100982.69
2019-02-27T17:20:45.788Z,100975.12
2019-02-27T17:23:13.495Z,100975.57
2019-02-27T17:25:44.854Z,100976.88
2019-02-27T17:28:14.461Z,100973.48
2019-02-27T17:30:43.807Z,100971.41
2019-02-27T17:33:13.182Z,100970.51
2019-02-27T17:35:42.494Z,100964.94
2019-02-27T17:38:13.721Z,100969.59
2019-02-27T17:40:42.921Z,100969.50
2019-02-27T17:43:12.253Z,100963.39
2019-02-27T17:45:44.327Z,100971.47
2019-02-27T17:48:13.127Z,100968.31
2019-02-27T17:50:42.779Z,100965.11
2019-02-27T17:53:12.419Z,100966.30
2019-02-27T17:55:42.554Z,100965.55
2019-02-27T17:58:12.258Z,100965.95
2019-02-27T18:00:50.115Z,100964.17
2019-02-27T18:03:17.532Z,100952.57
2019-02-27T18:05:47.156Z,100954.78
2019-02-27T18:08:17.187Z,100953.53
2019-02-27T18:10:46.573Z,100946.41
2019-02-27T18:13:15.898Z,100948.13
2019-02-27T18:15:45.248Z,100942.31
2019-02-27T18:18:14.821Z,100945.25
2019-02-27T18:20:44.161Z,100950.10
2019-02-27T18:23:13.491Z,100946.55
2019-02-27T18:25:42.834Z,100944.06
2019-02-27T18:28:12.424Z,100940.92
2019-02-27T18:30:42.769Z,100938.05
2019-02-27T18:33:14.271Z,100936.92
2019-02-27T18:35:43.774Z,100923.14
2019-02-27T18:38:13.357Z,100914.80
2019-02-27T18:40:42.921Z,100909.89
2019-02-27T18:43:13.002Z,100914.67
2019-02-27T18:45:42.318Z,100896.14
2019-02-27T18:48:11.638Z,100911.31
2019-02-27T18:50:41.260Z,100911.50
2019-02-27T18:53:13.467Z,100906.55
2019-02-27T18:55:44.000Z,100903.88
2019-02-27T18:58:13.522Z,100895.69
2019-02-27T19:00:42.860Z,100897.50
2019-02-27T19:03:13.152Z,100890.45
2019-02-27T19:05:42.514Z,100898.20
2019-02-27T19:08:12.106Z,100893.53
2019-02-27T19:10:42.651Z,100888.60
2019-02-27T19:13:12.315Z,100886.65
2019-02-27T19:15:45.453Z,100884.01
2019-02-27T19:18:13.197Z,100876.02
2019-02-27T19:20:48.589Z,100871.81
2019-02-27T19:23:18.569Z,100870.13
2019-02-27T19:25:48.208Z,100862.25
2019-02-27T19:28:17.613Z,100859.00
2019-02-27T19:30:47.222Z,100856.19
2019-02-27T19:33:16.847Z,100852.00
2019-02-27T19:35:46.432Z,100852.57
2019-02-27T19:38:16.060Z,100857.89
2019-02-27T19:40:45.405Z,100853.59
2019-02-27T19:43:15.011Z,100855.00
2019-02-27T19:45:44.656Z,100844.21
2019-02-27T19:48:14.005Z,100847.77
2019-02-27T19:50:46.371Z,100843.01
2019-02-27T19:53:14.683Z,100835.52
2019-02-27T19:55:44.286Z,100834.95
2019-02-27T19:58:17.260Z,100838.70
2019-02-27T20:00:48.440Z,100829.60
2019-02-27T20:03:16.282Z,100819.55
2019-02-27T20:05:45.899Z,100816.69
2019-02-27T20:08:15.569Z,100815.39
2019-02-27T20:10:45.250Z,100810.12
2019-02-27T20:13:14.932Z,100798.33
2019-02-27T20:15:45.479Z,100802.91
2019-02-27T20:18:15.792Z,100794.11
2019-02-27T20:20:45.407Z,100792.09
2019-02-27T20:23:15.076Z,100791.65
2019-02-27T20:25:44.591Z,100792.47
2019-02-27T20:28:13.985Z,100781.59
2019-02-27T20:30:43.578Z,100771.50
2019-02-27T20:33:16.455Z,100764.30
2019-02-27T20:35:46.020Z,100765.05
2019-02-27T20:38:16.877Z,100763.06
2019-02-27T20:40:46.564Z,100758.99
2019-02-27T20:43:16.184Z,100751.24
2019-02-27T20:45:45.750Z,100752.75
2019-02-27T20:48:15.383Z,100749.70
2019-02-27T20:50:52.329Z,100739.58
2019-02-27T20:53:21.858Z,100740.62
2019-02-27T20:55:51.555Z,100735.72
2019-02-27T20:58:22.152Z,100732.93
2019-02-27T21:00:51.985Z,100727.45
2019-02-27T21:03:26.660Z,100721.22
2019-02-27T21:05:52.641Z,100719.34
2019-02-27T21:08:21.976Z,100713.58
2019-02-27T21:10:54.728Z,100703.89
2019-02-27T21:13:22.378Z,100701.24
2019-02-27T21:15:52.076Z,100700.84
2019-02-27T21:18:21.672Z,100681.00
2019-02-27T21:20:51.042Z,100691.60
2019-02-27T21:23:20.707Z,100687.87
2019-02-27T21:25:50.312Z,100673.30
2019-02-27T21:28:21.207Z,100665.28
2019-02-27T21:30:52.374Z,100667.47
2019-02-27T21:33:22.007Z,100662.39
2019-02-27T21:35:51.706Z,100658.53
2019-02-27T21:38:21.345Z,100652.53
2019-02-27T21:40:50.644Z,100654.30
2019-02-27T21:43:25.377Z,100646.52
2019-02-27T21:45:51.302Z,100651.97
2019-02-27T21:48:23.413Z,100643.00
2019-02-27T21:50:52.222Z,100648.81
2019-02-27T21:53:21.799Z,100641.98
2019-02-27T21:55:51.109Z,100642.25
2019-02-27T21:58:20.819Z,100640.78
2019-02-27T22:00:50.133Z,100637.23
2019-02-27T22:03:19.474Z,100625.73
2019-02-27T22:05:52.651Z,100627.76
2019-02-27T22:08:20.452Z,100631.03
2019-02-27T22:10:53.322Z,100619.48
2019-02-27T22:13:28.845Z,100619.60
2019-02-27T22:15:55.875Z,100626.98
2019-02-27T22:18:23.541Z,100627.36
2019-02-27T22:20:53.187Z,100624.23
2019-02-27T22:23:22.502Z,100610.42
2019-02-27T22:25:51.843Z,100612.80
2019-02-27T22:28:21.186Z,100611.73
2019-02-27T22:30:50.524Z,100609.57
2019-02-27T22:33:23.051Z,100607.41
2019-02-27T22:35:51.475Z,100607.91
2019-02-27T22:38:25.849Z,100598.55
2019-02-27T22:40:52.230Z,100599.02
2019-02-27T22:43:21.979Z,100595.79
2019-02-27T22:45:52.324Z,100589.55
2019-02-27T22:48:21.736Z,100584.62
2019-02-27T22:50:51.049Z,100572.47
2019-02-27T22:53:20.380Z,100574.18
2019-02-27T22:55:49.971Z,100570.10
2019-02-27T22:58:19.793Z,100557.70
2019-02-27T23:01:01.322Z,100563.61
2019-02-27T23:03:38.581Z,100557.25
2019-02-27T23:06:09.269Z,100561.59
2019-02-27T23:08:39.597Z,100545.13
2019-02-27T23:11:09.404Z,100541.07
2019-02-27T23:13:39.006Z,100536.27
2019-02-27T23:16:08.341Z,100531.11
2019-02-27T23:18:40.250Z,100527.50
2019-02-27T23:21:08.990Z,100519.32
2019-02-27T23:23:38.697Z,100516.93
2019-02-27T23:26:08.029Z,100510.82
2019-02-27T23:28:37.760Z,100516.20
2019-02-27T23:31:07.078Z,100514.78
2019-02-27T23:33:36.754Z,100512.14
2019-02-27T23:36:06.533Z,100510.58
2019-02-27T23:38:35.946Z,100509.50
2019-02-27T23:41:05.291Z,100506.25
2019-02-27T23:43:35.091Z,100509.59
2019-02-27T23:46:05.131Z,100504.55
2019-02-27T23:48:36.224Z,100498.31
2019-02-27T23:51:05.526Z,100492.56
2019-02-27T23:53:35.170Z,100481.88
2019-02-27T23:56:05.147Z,100480.06
2019-02-27T23:58:34.514Z,100473.97
